Marcus Hook, Pennsylvania
Current Conditions -  °F | °C
As of 7:54 AM on Thursday 18 Dec 2014 (Local Time) from KPHL Reporting Station
Scattered Clouds Scattered Clouds  
Wind Chill: 26°   Ceiling: Unl
Heat Index: 34°   Visibility: 10mi
Dew Point: 19°   Wind: 10mph
Humidity: 54%   Direction: 260°W
Pressure: 30.07"   Gusts: NA
Location:  39.82°N, 75.42°W
Report Text: KPHL 181254Z 26009KT 10SM SCT041 01/M07 A3007 RMK AO2 SLP183 T00111072
Loading
Personal Weather Stations






























Interactive Weather Map New forecast layout! Learn more

10-Day Weather Forecast

Advertisements
Track Severe Weather on mobile